Time;durP1;ratioP1;P1;durP2;ratioP2;P2;SDS_P1;SDS_P2;PMS_P1;PMS_P2;Temp;Humidity;BMP_temperature;BMP_pressure;BME280_temperature;BME280_humidity;BME280_pressure;Samples;Min_cycle;Max_cycle;Signal;HPM_P1;HPM_P2
2022/09/27 00:00:42;;;;;;;2.55;0.40;;;12.10;70.00;;;;;;5112780;28;20156;-69
2022/09/27 00:03:10;;;;;;;1.75;0.50;;;12.10;70.00;;;;;;5113002;28;20042;-69
2022/09/27 00:05:35;;;;;;;1.63;0.40;;;12.10;70.00;;;;;;5113265;28;20055;-70
2022/09/27 00:08:01;;;;;;;4.25;0.77;;;12.10;70.10;;;;;;5113112;28;20382;-70
2022/09/27 00:10:27;;;;;;;3.65;0.63;;;12.10;70.10;;;;;;5113528;28;20044;-66
2022/09/27 00:12:53;;;;;;;3.60;0.85;;;12.00;70.00;;;;;;5124188;27;20580;-66
2022/09/27 00:15:19;;;;;;;3.55;0.47;;;12.00;70.00;;;;;;5113229;28;20044;-66
2022/09/27 00:17:45;;;;;;;6.85;1.15;;;12.00;70.10;;;;;;5112976;28;20092;-66
2022/09/27 00:20:11;;;;;;;4.10;0.50;;;11.90;70.30;;;;;;5113486;28;20043;-66
2022/09/27 00:22:38;;;;;;;4.22;0.47;;;11.90;70.40;;;;;;5112628;28;20065;-66
2022/09/27 00:25:06;;;;;;;1.67;0.38;;;11.90;70.70;;;;;;5113219;28;20031;-66
2022/09/27 00:27:32;;;;;;;2.63;0.63;;;11.80;70.80;;;;;;5112513;28;20079;-66
2022/09/27 00:29:57;;;;;;;2.47;0.50;;;11.80;70.90;;;;;;5118750;27;20082;-69
2022/09/27 00:32:23;;;;;;;3.17;0.38;;;11.80;71.10;;;;;;5113024;28;20042;-70
2022/09/27 00:34:49;;;;;;;3.05;0.75;;;11.80;71.10;;;;;;5112345;28;20040;-66
2022/09/27 00:37:14;;;;;;;3.70;0.40;;;11.80;71.10;;;;;;5095537;28;20046;-69
2022/09/27 00:39:40;;;;;;;2.38;0.45;;;11.70;71.20;;;;;;5096362;28;20043;-69
2022/09/27 00:42:10;;;;;;;4.40;0.57;;;11.70;71.30;;;;;;5112931;28;20487;-69
2022/09/27 00:44:38;;;;;;;2.45;0.50;;;11.60;71.40;;;;;;5112600;28;20040;-69
2022/09/27 00:47:34;;;;;;;1.85;0.30;;;11.70;71.60;;;;;;5112675;28;20467;-69
2022/09/27 00:50:25;;;;;;;3.15;0.22;;;11.70;71.70;;;;;;5110183;28;20513;-69
2022/09/27 00:53:15;;;;;;;0.77;0.30;;;11.70;71.80;;;;;;5112863;28;20039;-69
2022/09/27 00:55:51;;;;;;;6.43;1.77;;;11.70;71.80;;;;;;5112379;27;20089;-70
2022/09/27 00:58:20;;;;;;;1.38;0.20;;;11.70;71.80;;;;;;5105551;28;20042;-66
2022/09/27 01:00:51;;;;;;;3.45;0.65;;;11.70;71.80;;;;;;5112606;28;20046;-67
2022/09/27 01:03:41;;;;;;;3.05;0.40;;;11.70;71.80;;;;;;5112365;28;20047;-66
2022/09/27 01:06:09;;;;;;;3.65;0.50;;;11.70;71.70;;;;;;5114271;27;20103;-66
2022/09/27 01:08:34;;;;;;;1.58;0.30;;;11.70;71.70;;;;;;5094793;28;20047;-66
2022/09/27 01:11:29;;;;;;;2.40;0.70;;;11.70;71.50;;;;;;5112562;28;20043;-66
2022/09/27 01:14:20;;;;;;;2.43;0.43;;;11.70;71.40;;;;;;5111335;28;20028;-67
2022/09/27 01:17:07;;;;;;;1.50;0.40;;;11.60;71.50;;;;;;5095191;28;20046;-66
2022/09/27 01:20:14;;;;;;;2.55;0.60;;;11.60;71.40;;;;;;5112063;28;20117;-66
2022/09/27 01:23:01;;;;;;;2.15;0.30;;;11.60;71.30;;;;;;5112136;28;20708;-67
2022/09/27 01:25:41;;;;;;;2.10;0.50;;;11.60;71.30;;;;;;5111198;28;20516;-66
2022/09/27 01:28:37;;;;;;;4.55;0.68;;;11.60;71.20;;;;;;5111508;28;20048;-66
2022/09/27 01:31:23;;;;;;;2.13;0.38;;;11.60;71.30;;;;;;5121643;27;20040;-70
2022/09/27 01:34:15;;;;;;;4.05;0.50;;;11.50;71.20;;;;;;5111395;28;20479;-70
2022/09/27 01:36:53;;;;;;;2.47;0.47;;;11.50;71.20;;;;;;5114337;27;20097;-66
2022/09/27 01:39:49;;;;;;;4.10;0.50;;;11.40;71.20;;;;;;5110162;28;20043;-66
2022/09/27 01:42:38;;;;;;;3.88;0.88;;;11.40;71.20;;;;;;5111062;28;20087;-66
2022/09/27 01:45:34;;;;;;;5.07;0.70;;;11.40;71.40;;;;;;5094696;28;20462;-66
2022/09/27 01:48:06;;;;;;;3.58;0.30;;;11.30;71.40;;;;;;5117241;28;20044;-66
2022/09/27 01:50:34;;;;;;;2.30;0.43;;;11.30;71.50;;;;;;5105962;28;20046;-69
2022/09/27 01:53:22;;;;;;;1.10;0.43;;;11.30;71.60;;;;;;5111869;28;20487;-69
2022/09/27 01:55:51;;;;;;;2.92;0.38;;;11.30;71.60;;;;;;5111679;28;20398;-70
2022/09/27 01:58:24;;;;;;;1.85;0.40;;;11.30;71.70;;;;;;5111480;28;20495;-69
2022/09/27 02:00:53;;;;;;;1.67;0.30;;;11.30;71.80;;;;;;5111460;28;20077;-66
2022/09/27 02:03:33;;;;;;;2.95;0.40;;;11.30;71.80;;;;;;5111397;28;20067;-66
2022/09/27 02:06:06;;;;;;;4.57;0.30;;;11.30;71.90;;;;;;5111586;28;20035;-66
2022/09/27 02:08:40;;;;;;;3.28;0.50;;;11.30;72.00;;;;;;5111312;28;20040;-66
2022/09/27 02:11:10;;;;;;;;;;;11.30;72.20;;;;;;5112062;28;20075;-69
2022/09/27 02:13:54;;;;;;;4.05;0.50;;;11.30;72.00;;;;;;5108581;28;19966;-66
2022/09/27 02:16:34;;;;;;;5.28;0.50;;;11.30;72.30;;;;;;5111558;28;20130;-66
2022/09/27 02:19:03;;;;;;;1.40;0.30;;;11.30;72.30;;;;;;5111389;28;20118;-66
2022/09/27 02:21:41;;;;;;;2.42;0.40;;;11.30;72.20;;;;;;5111647;28;20050;-69
2022/09/27 02:24:11;;;;;;;1.63;0.30;;;11.30;72.30;;;;;;5094366;28;20107;-69
2022/09/27 02:26:41;;;;;;;3.13;0.63;;;11.30;72.20;;;;;;5115110;28;20397;-66
2022/09/27 02:29:18;;;;;;;3.88;0.40;;;11.40;72.20;;;;;;5098577;28;20088;-66
2022/09/27 02:31:43;;;;;;;4.00;0.60;;;11.40;72.10;;;;;;5115426;28;20062;-66
2022/09/27 02:34:15;;;;;;;2.50;0.25;;;11.40;72.00;;;;;;5097815;28;20043;-66
2022/09/27 02:36:41;;;;;;;3.47;0.47;;;11.40;71.80;;;;;;5114890;28;20110;-66
2022/09/27 02:39:07;;;;;;;2.72;0.30;;;11.40;71.70;;;;;;5114924;28;20123;-66
2022/09/27 02:41:33;;;;;;;3.20;0.40;;;11.40;71.70;;;;;;5114871;28;20044;-66
2022/09/27 02:44:08;;;;;;;2.20;0.70;;;11.40;71.70;;;;;;5115371;28;20043;-66
2022/09/27 02:46:40;;;;;;;4.28;0.40;;;11.40;71.60;;;;;;5111092;28;20086;-69
2022/09/27 02:49:36;;;;;;;0.90;0.30;;;11.40;71.60;;;;;;5115689;28;20465;-69
2022/09/27 02:52:32;;;;;;;1.52;0.40;;;11.40;71.50;;;;;;5114832;28;20031;-70
2022/09/27 02:55:05;;;;;;;1.58;0.30;;;11.40;71.40;;;;;;5114569;28;20091;-66
2022/09/27 02:57:45;;;;;;;1.35;0.32;;;11.40;71.40;;;;;;5097915;28;20413;-66
2022/09/27 03:00:17;;;;;;;1.13;0.40;;;11.40;71.30;;;;;;5114742;28;20063;-66
2022/09/27 03:03:01;;;;;;;1.17;0.40;;;11.40;71.40;;;;;;5114616;28;20055;-66
2022/09/27 03:05:32;;;;;;;1.52;0.38;;;11.40;71.40;;;;;;5114303;28;20040;-69
2022/09/27 03:07:58;;;;;;;1.17;0.25;;;11.40;71.40;;;;;;5097869;28;20035;-69
2022/09/27 03:10:27;;;;;;;3.85;0.77;;;11.40;71.40;;;;;;5114059;28;20058;-69
2022/09/27 03:12:53;;;;;;;0.32;0.20;;;11.40;71.30;;;;;;5114911;28;20100;-66
2022/09/27 03:15:19;;;;;;;1.20;0.25;;;11.50;71.20;;;;;;5114150;28;20040;-66
2022/09/27 03:17:45;;;;;;;1.48;0.43;;;11.40;71.10;;;;;;5115113;28;20439;-69
2022/09/27 03:20:11;;;;;;;1.45;0.38;;;11.50;71.10;;;;;;5114616;28;20036;-69
2022/09/27 03:22:37;;;;;;;2.50;0.47;;;11.50;70.90;;;;;;5114462;28;20036;-70
2022/09/27 03:25:04;;;;;;;3.10;0.38;;;11.50;70.90;;;;;;5114048;28;20100;-70
2022/09/27 03:27:30;;;;;;;0.98;0.43;;;11.50;70.90;;;;;;5086639;28;20051;-70
2022/09/27 03:29:57;;;;;;;1.88;0.40;;;11.50;70.90;;;;;;5114104;28;20063;-70
2022/09/27 03:32:22;;;;;;;2.03;0.30;;;11.50;70.90;;;;;;5114681;28;20050;-70
2022/09/27 03:34:48;;;;;;;1.70;0.10;;;11.50;70.80;;;;;;5113762;28;20040;-69
2022/09/27 03:37:14;;;;;;;0.95;0.20;;;11.50;70.70;;;;;;5113327;28;20042;-66
2022/09/27 03:39:39;;;;;;;0.93;0.30;;;11.50;70.70;;;;;;5114156;28;20126;-66
2022/09/27 03:42:05;;;;;;;1.92;0.40;;;11.50;70.60;;;;;;5113590;28;20134;-66
2022/09/27 03:44:31;;;;;;;0.80;0.20;;;11.50;70.60;;;;;;5096633;28;20063;-66
2022/09/27 03:46:57;;;;;;;0.60;0.20;;;11.50;70.50;;;;;;5114000;28;20048;-66
2022/09/27 03:49:23;;;;;;;1.65;0.25;;;11.50;70.40;;;;;;5113937;28;20044;-66
2022/09/27 03:51:49;;;;;;;0.85;0.20;;;11.50;70.30;;;;;;5113888;28;20386;-66
2022/09/27 03:54:14;;;;;;;1.17;0.30;;;11.50;70.30;;;;;;5113928;28;20047;-66
2022/09/27 03:56:40;;;;;;;2.35;0.25;;;11.50;70.30;;;;;;5113405;28;20398;-66
2022/09/27 03:59:06;;;;;;;0.63;0.10;;;11.50;70.30;;;;;;5113308;28;20095;-66
2022/09/27 04:01:33;;;;;;;1.67;0.20;;;11.50;70.30;;;;;;5113264;28;20180;-66
2022/09/27 04:03:59;;;;;;;0.25;0.10;;;11.50;70.20;;;;;;5113448;28;20119;-69
2022/09/27 04:06:25;;;;;;;2.17;0.38;;;11.50;70.20;;;;;;5113159;28;20119;-66
2022/09/27 04:08:52;;;;;;;1.05;0.30;;;11.50;70.10;;;;;;5113527;28;20122;-66
2022/09/27 04:11:18;;;;;;;1.73;0.30;;;11.50;70.10;;;;;;5113538;28;20411;-69
2022/09/27 04:13:48;;;;;;;0.60;0.20;;;11.50;70.10;;;;;;5113682;28;20028;-69
2022/09/27 04:16:14;;;;;;;1.13;0.30;;;11.50;70.00;;;;;;5113042;28;20108;-67
2022/09/27 04:18:40;;;;;;;1.98;0.30;;;11.50;69.90;;;;;;5113275;28;20066;-66
2022/09/27 04:21:06;;;;;;;0.93;0.30;;;11.40;69.80;;;;;;5113542;28;20479;-66
2022/09/27 04:23:32;;;;;;;2.72;0.40;;;11.50;69.80;;;;;;5113165;28;20036;-66
2022/09/27 04:25:58;;;;;;;2.15;0.25;;;11.40;69.70;;;;;;5112899;28;20451;-69
2022/09/27 04:28:24;;;;;;;0.82;0.20;;;11.40;69.60;;;;;;5113243;28;20162;-69
2022/09/27 04:30:49;;;;;;;1.90;0.35;;;11.40;69.60;;;;;;5113228;28;20122;-69
2022/09/27 04:33:15;;;;;;;1.25;0.30;;;11.40;69.60;;;;;;5112909;28;20126;-69
2022/09/27 04:38:26;;;;;;;2.33;0.32;;;11.30;69.50;;;;;;5109855;27;20047;-69
2022/09/27 04:40:52;;;;;;;2.03;0.22;;;11.30;69.50;;;;;;5093586;28;20039;-69
2022/09/27 04:43:18;;;;;;;1.20;0.30;;;11.30;69.50;;;;;;5112706;28;20036;-66
2022/09/27 04:45:44;;;;;;;1.25;0.30;;;11.30;69.50;;;;;;5112633;28;20555;-66
2022/09/27 04:48:09;;;;;;;2.67;0.40;;;11.30;69.50;;;;;;5095370;28;20035;-66
2022/09/27 04:50:35;;;;;;;2.95;0.50;;;11.30;69.50;;;;;;5111982;28;20081;-66
2022/09/27 04:53:01;;;;;;;2.88;0.25;;;11.20;69.50;;;;;;5113061;28;20043;-69
2022/09/27 04:55:27;;;;;;;0.85;0.30;;;11.20;69.50;;;;;;5095649;28;20028;-70
2022/09/27 04:57:53;;;;;;;1.40;0.30;;;11.20;69.50;;;;;;5095868;28;20043;-66
2022/09/27 05:00:19;;;;;;;0.88;0.28;;;11.20;69.40;;;;;;5112324;28;20043;-66
2022/09/27 05:02:47;;;;;;;0.93;0.35;;;11.20;69.30;;;;;;5112327;28;20106;-69
2022/09/27 05:05:13;;;;;;;2.75;0.30;;;11.20;69.30;;;;;;5112232;28;20043;-69
2022/09/27 05:07:39;;;;;;;2.33;0.40;;;11.10;69.30;;;;;;5094947;28;20051;-66
2022/09/27 05:10:06;;;;;;;2.40;0.43;;;11.10;69.40;;;;;;5095470;28;20104;-66
2022/09/27 05:12:32;;;;;;;1.40;0.50;;;11.10;69.40;;;;;;5112419;28;20088;-66
2022/09/27 05:14:58;;;;;;;2.05;0.40;;;11.10;69.50;;;;;;5111783;28;20031;-65
2022/09/27 05:17:24;;;;;;;2.28;0.40;;;11.00;69.40;;;;;;5112187;28;20420;-70
2022/09/27 05:19:50;;;;;;;2.47;0.35;;;11.00;69.50;;;;;;5095902;28;20528;-69
2022/09/27 05:22:16;;;;;;;1.85;0.35;;;11.00;69.60;;;;;;5078273;28;20039;-69
2022/09/27 05:24:41;;;;;;;3.97;0.57;;;11.00;69.70;;;;;;5093690;28;20036;-70
2022/09/27 05:27:14;;;;;;;1.98;0.32;;;11.00;69.70;;;;;;5112103;28;20414;-69
2022/09/27 05:29:40;;;;;;;3.58;1.65;;;10.90;69.70;;;;;;5112189;28;20039;-69
2022/09/27 05:32:06;;;;;;;2.22;0.75;;;10.90;69.80;;;;;;5111990;28;20036;-66
2022/09/27 05:34:33;;;;;;;3.38;0.60;;;10.90;69.90;;;;;;5111580;28;20050;-66
2022/09/27 05:36:58;;;;;;;2.25;0.40;;;10.90;69.90;;;;;;5111551;28;20391;-66
2022/09/27 05:39:24;;;;;;;1.88;0.40;;;10.90;70.00;;;;;;5112045;28;20044;-66
2022/09/27 05:41:50;;;;;;;1.10;0.35;;;10.90;70.00;;;;;;5111956;28;20436;-69
2022/09/27 05:44:16;;;;;;;1.85;0.50;;;10.90;70.00;;;;;;5112225;28;20040;-70
2022/09/27 05:46:42;;;;;;;2.75;0.55;;;10.80;70.00;;;;;;5111502;28;20487;-70
2022/09/27 05:49:07;;;;;;;5.38;0.73;;;10.80;70.10;;;;;;5111945;28;20085;-70
2022/09/27 05:51:33;;;;;;;2.20;0.60;;;10.80;70.10;;;;;;5094751;28;20039;-70
2022/09/27 05:53:59;;;;;;;1.80;0.40;;;10.80;70.10;;;;;;5111922;28;20035;-70
2022/09/27 05:56:25;;;;;;;2.58;0.50;;;10.80;70.60;;;;;;5111618;28;20097;-70
2022/09/27 05:58:51;;;;;;;3.28;0.55;;;10.80;70.20;;;;;;5112809;28;20040;-70
2022/09/27 06:01:17;;;;;;;3.25;0.93;;;10.80;70.20;;;;;;5116348;28;20040;-70
2022/09/27 06:03:44;;;;;;;1.58;0.40;;;10.80;70.10;;;;;;5098325;28;20040;-70
2022/09/27 06:06:10;;;;;;;3.25;0.77;;;10.80;70.10;;;;;;5116024;28;20104;-70
2022/09/27 06:08:37;;;;;;;2.90;0.85;;;10.80;70.20;;;;;;5114926;28;20044;-70
2022/09/27 06:11:06;;;;;;;2.45;0.60;;;10.80;70.20;;;;;;5115736;28;20039;-70
2022/09/27 06:13:35;;;;;;;4.05;0.60;;;10.80;70.30;;;;;;5120358;27;20035;-70
2022/09/27 06:16:01;;;;;;;3.85;0.50;;;10.70;70.30;;;;;;5116153;28;20122;-69
2022/09/27 06:18:27;;;;;;;4.22;0.40;;;10.70;70.40;;;;;;5115806;28;20038;-69
2022/09/27 06:20:53;;;;;;;1.60;0.40;;;10.70;70.50;;;;;;5133223;27;20040;-69
2022/09/27 06:23:21;;;;;;;2.25;0.40;;;10.80;70.60;;;;;;5098794;28;20074;-69
2022/09/27 06:25:48;;;;;;;2.15;0.50;;;10.80;70.70;;;;;;5115537;28;20035;-69
2022/09/27 06:28:15;;;;;;;3.70;0.73;;;10.80;70.70;;;;;;5115530;28;20050;-69
2022/09/27 06:30:43;;;;;;;5.03;1.40;;;10.80;70.70;;;;;;5115363;28;20040;-72
2022/09/27 06:33:12;;;;;;;2.50;0.50;;;10.80;70.70;;;;;;5115503;28;20027;-72
2022/09/27 06:35:38;;;;;;;2.05;0.60;;;10.80;70.80;;;;;;5115071;28;20046;-72
2022/09/27 06:38:09;;;;;;;2.47;0.50;;;10.80;70.90;;;;;;5097968;28;20485;-73
2022/09/27 06:40:35;;;;;;;2.05;0.50;;;10.80;71.10;;;;;;5115451;28;20043;-73
2022/09/27 06:43:08;;;;;;;3.45;0.90;;;10.80;71.10;;;;;;5098335;28;20035;-73
2022/09/27 06:45:34;;;;;;;2.42;0.40;;;10.90;71.30;;;;;;5098716;28;20046;-73
2022/09/27 06:48:11;;;;;;;2.55;0.43;;;10.80;71.20;;;;;;5115381;28;20456;-73
2022/09/27 06:50:40;;;;;;;2.15;0.40;;;10.90;71.30;;;;;;5115039;28;20048;-73
2022/09/27 06:53:09;;;;;;;3.13;0.75;;;10.90;71.30;;;;;;5115135;28;20052;-72
2022/09/27 06:55:35;;;;;;;2.78;0.63;;;10.90;71.40;;;;;;5114900;28;20093;-72
2022/09/27 07:00:52;;;;;;;2.17;0.50;;;10.90;71.50;;;;;;5115271;28;20059;-72
2022/09/27 07:03:18;;;;;;;3.03;0.40;;;10.90;71.40;;;;;;5114346;28;20039;-72
2022/09/27 07:05:58;;;;;;;0.95;0.30;;;11.00;71.50;;;;;;5114913;28;20054;-72
2022/09/27 07:08:27;;;;;;;1.88;0.38;;;11.00;71.70;;;;;;5115040;27;20084;-72
2022/09/27 07:11:04;;;;;;;2.45;0.35;;;11.00;71.80;;;;;;5128516;27;20312;-72
2022/09/27 07:13:31;;;;;;;0.88;0.25;;;11.10;72.00;;;;;;5130237;27;20043;-72
2022/09/27 07:15:57;;;;;;;1.58;0.30;;;11.10;72.00;;;;;;5109821;27;20031;-72
2022/09/27 07:18:23;;;;;;;2.90;0.35;;;11.10;72.10;;;;;;5125588;27;20407;-72
2022/09/27 07:20:52;;;;;;;1.65;0.55;;;11.10;72.10;;;;;;5128639;27;20034;-72
2022/09/27 07:23:17;;;;;;;1.88;0.25;;;11.10;72.30;;;;;;5108607;27;20033;-72
2022/09/27 07:25:43;;;;;;;2.80;0.30;;;11.20;72.40;;;;;;5126566;27;20039;-72
2022/09/27 07:28:14;;;;;;;4.13;0.45;;;11.20;72.50;;;;;;5125444;27;20075;-72
2022/09/27 07:30:40;;;;;;;3.13;0.47;;;11.20;72.80;;;;;;5126326;27;20359;-73
2022/09/27 07:33:07;;;;;;;3.22;0.30;;;11.30;73.00;;;;;;5111031;27;20038;-72
2022/09/27 07:35:35;;;;;;;2.30;0.85;;;11.30;73.20;;;;;;5125829;27;20035;-72
2022/09/27 07:38:02;;;;;;;5.60;0.70;;;11.30;73.20;;;;;;5110658;27;20096;-73
2022/09/27 07:40:28;;;;;;;3.30;0.52;;;11.40;73.40;;;;;;5127166;27;20145;-72
2022/09/27 07:42:55;;;;;;;4.22;0.40;;;11.40;73.60;;;;;;5110084;27;20386;-72
2022/09/27 07:45:22;;;;;;;4.07;0.45;;;11.50;73.80;;;;;;5127207;27;20031;-73
2022/09/27 07:47:47;;;;;;;3.95;0.70;;;11.50;73.80;;;;;;5110824;27;20090;-73
2022/09/27 07:50:13;;;;;;;1.70;0.32;;;11.60;73.90;;;;;;5128357;27;20035;-73
2022/09/27 07:52:44;;;;;;;3.13;0.60;;;11.70;74.10;;;;;;5127120;27;20138;-73
2022/09/27 07:55:12;;;;;;;2.28;0.40;;;11.70;74.10;;;;;;5126523;27;20034;-74
2022/09/27 07:57:38;;;;;;;0.60;0.20;;;11.80;74.00;;;;;;5127412;27;20042;-73
2022/09/27 08:00:09;;;;;;;2.22;0.30;;;11.80;73.90;;;;;;5123760;27;20035;-73
2022/09/27 08:02:35;;;;;;;3.13;0.60;;;12.00;74.10;;;;;;5127564;27;20058;-74
2022/09/27 08:05:02;;;;;;;3.17;0.43;;;12.10;74.30;;;;;;5115192;27;20040;-73
2022/09/27 08:07:28;;;;;;;2.20;0.30;;;12.20;74.60;;;;;;5113120;28;20040;-73
2022/09/27 08:09:55;;;;;;;2.80;0.30;;;12.40;74.50;;;;;;5113639;28;20036;-73
2022/09/27 08:12:21;;;;;;;2.38;0.55;;;12.50;74.30;;;;;;5114228;28;20043;-73
2022/09/27 08:14:51;;;;;;;1.95;0.22;;;12.70;74.00;;;;;;5113985;28;20082;-74
2022/09/27 08:17:18;;;;;;;1.27;0.20;;;12.90;73.40;;;;;;5113832;28;20051;-74
2022/09/27 08:19:44;;;;;;;1.00;0.28;;;13.10;72.50;;;;;;5113682;28;20051;-74
2022/09/27 08:22:13;;;;;;;2.67;0.40;;;13.30;71.70;;;;;;5113382;28;20046;-74
2022/09/27 08:24:40;;;;;;;2.67;0.52;;;13.30;70.90;;;;;;5096433;28;20036;-74
2022/09/27 08:27:06;;;;;;;2.75;0.60;;;13.40;70.10;;;;;;5113299;28;20061;-74
2022/09/27 08:29:33;;;;;;;2.10;0.40;;;13.50;69.70;;;;;;5113469;28;20560;-74
2022/09/27 08:31:59;;;;;;;2.85;0.30;;;13.50;69.20;;;;;;5113663;28;20442;-68
2022/09/27 08:34:27;;;;;;;1.20;0.30;;;13.50;69.00;;;;;;5112389;28;20115;-69
2022/09/27 08:36:54;;;;;;;3.50;0.50;;;13.60;69.00;;;;;;5113397;28;20044;-68
2022/09/27 08:39:20;;;;;;;3.35;0.30;;;13.60;68.90;;;;;;5113341;28;20070;-68
2022/09/27 08:42:05;;;;;;;2.40;0.32;;;13.60;68.50;;;;;;5095756;28;20043;-68
2022/09/27 08:44:46;;;;;;;0.95;0.50;;;13.60;68.00;;;;;;5112791;28;20096;-67
2022/09/27 08:47:17;;;;;;;2.22;0.40;;;13.60;68.80;;;;;;5113099;28;20127;-68
2022/09/27 08:50:00;;;;;;;1.95;0.80;;;13.50;68.60;;;;;;5095811;28;20054;-68
2022/09/27 08:52:35;;;;;;;2.35;0.50;;;13.50;68.50;;;;;;5111836;28;20039;-67
2022/09/27 08:55:05;;;;;;;2.13;0.30;;;13.50;68.10;;;;;;5120767;27;20028;-68
2022/09/27 08:57:31;;;;;;;1.65;0.20;;;13.40;67.90;;;;;;5113175;28;20383;-67
2022/09/27 09:00:10;;;;;;;1.63;0.20;;;13.30;67.90;;;;;;5112320;28;20036;-68
2022/09/27 09:02:36;;;;;;;1.42;0.28;;;13.30;68.10;;;;;;5112820;28;20122;-68
2022/09/27 09:05:13;;;;;;;2.60;0.28;;;13.30;68.50;;;;;;5095293;28;20051;-67
2022/09/27 09:07:44;;;;;;;1.45;0.40;;;13.30;68.80;;;;;;5112334;28;20479;-68
2022/09/27 09:12:45;;;;;;;2.83;0.30;;;13.20;68.90;;;;;;5112292;28;20067;-68
2022/09/27 09:13:40;;;;;;;0.95;0.25;;;13.20;69.10;;;;;;5112430;28;20414;-67
2022/09/27 09:16:34;;;;;;;5.22;0.38;;;13.30;69.30;;;;;;5085912;28;20141;-68
2022/09/27 09:19:18;;;;;;;2.05;0.40;;;13.20;69.40;;;;;;5112402;28;20420;-67
2022/09/27 09:21:59;;;;;;;2.45;0.50;;;13.20;69.10;;;;;;5112393;28;20071;-67
2022/09/27 09:24:48;;;;;;;2.78;0.50;;;13.20;69.10;;;;;;5110604;28;20062;-67
2022/09/27 09:27:43;;;;;;;1.92;0.30;;;13.20;69.00;;;;;;5113084;28;20110;-68
2022/09/27 09:30:22;;;;;;;3.33;0.90;;;13.20;68.90;;;;;;5111892;28;20055;-67
2022/09/27 09:33:19;;;;;;;0.70;0.20;;;13.10;69.00;;;;;;5111942;28;20039;-68
2022/09/27 09:35:57;;;;;;;0.43;0.20;;;13.20;69.00;;;;;;5111413;28;20039;-68
2022/09/27 09:38:33;;;;;;;0.75;0.10;;;13.10;68.80;;;;;;5111625;28;20475;-68
2022/09/27 09:41:23;;;;;;;1.20;0.40;;;13.10;69.00;;;;;;5121944;27;20454;-68
2022/09/27 09:43:54;;;;;;;2.13;0.22;;;13.10;68.40;;;;;;5112128;28;20491;-68
2022/09/27 09:46:26;;;;;;;1.75;0.40;;;13.10;68.60;;;;;;5111992;28;20044;-68
2022/09/27 09:49:06;;;;;;;0.65;0.20;;;13.20;69.00;;;;;;5112098;28;20065;-68
2022/09/27 09:51:45;;;;;;;1.98;0.55;;;13.20;69.20;;;;;;5112143;28;20036;-68
2022/09/27 09:54:23;;;;;;;1.00;0.43;;;13.20;69.30;;;;;;5110869;28;20077;-68
2022/09/27 09:56:59;;;;;;;0.90;0.30;;;13.30;69.70;;;;;;5111728;28;20044;-67
2022/09/27 09:59:25;;;;;;;3.15;0.75;;;13.30;70.00;;;;;;5112330;28;20115;-68
2022/09/27 10:01:54;;;;;;;2.25;0.70;;;13.40;70.50;;;;;;5094819;28;20476;-67
2022/09/27 10:04:27;;;;;;;2.92;0.90;;;13.40;70.90;;;;;;5111624;28;20123;-68
2022/09/27 10:06:56;;;;;;;1.75;0.47;;;13.50;71.00;;;;;;5111647;28;20100;-68
2022/09/27 10:09:25;;;;;;;2.97;0.43;;;13.60;70.80;;;;;;5112063;28;20395;-68
2022/09/27 10:11:51;;;;;;;2.30;0.65;;;13.60;70.40;;;;;;5111636;28;20027;-67
2022/09/27 10:14:19;;;;;;;1.92;0.57;;;13.70;70.10;;;;;;5078117;28;20062;-68
2022/09/27 10:16:48;;;;;;;2.15;0.32;;;13.70;69.80;;;;;;5111520;28;20036;-67
2022/09/27 10:19:33;;;;;;;3.65;0.47;;;13.80;69.60;;;;;;5111834;28;20043;-68
2022/09/27 10:22:38;;;;;;;3.17;0.60;;;13.80;69.70;;;;;;5111532;28;20362;-67
2022/09/27 10:25:07;;;;;;;3.45;0.52;;;13.90;69.80;;;;;;5110534;28;20308;-67
2022/09/27 10:27:47;;;;;;;4.95;0.80;;;14.00;69.80;;;;;;5111448;28;20116;-68
2022/09/27 10:30:27;;;;;;;2.00;0.32;;;14.00;69.40;;;;;;5111530;28;20051;-68
2022/09/27 10:32:57;;;;;;;2.05;0.25;;;14.10;68.80;;;;;;5111552;28;20040;-67
2022/09/27 10:35:29;;;;;;;1.90;0.30;;;14.10;68.50;;;;;;5111275;28;20044;-68
2022/09/27 10:38:27;;;;;;;4.07;0.30;;;14.20;67.70;;;;;;5094519;28;20084;-67
2022/09/27 10:40:55;;;;;;;2.30;0.20;;;14.10;65.90;;;;;;5111564;28;20494;-67
2022/09/27 10:43:30;;;;;;;1.23;0.20;;;14.00;64.90;;;;;;5111656;28;20542;-75
2022/09/27 10:46:07;;;;;;;0.38;0.10;;;13.90;64.50;;;;;;5114497;28;20032;-73
2022/09/27 10:48:34;;;;;;;1.77;0.20;;;13.80;63.90;;;;;;5101771;28;20080;-73
2022/09/27 10:51:03;;;;;;;0.93;0.13;;;13.80;64.30;;;;;;5115089;28;20093;-73
2022/09/27 10:53:31;;;;;;;0.70;0.10;;;13.70;64.30;;;;;;5114073;28;20115;-74
2022/09/27 10:55:57;;;;;;;0.40;0.10;;;13.60;64.20;;;;;;5098789;28;20498;-75
2022/09/27 10:58:30;;;;;;;1.67;0.32;;;13.50;64.50;;;;;;5115195;28;20031;-73
2022/09/27 11:01:05;;;;;;;0.40;0.00;;;13.50;64.70;;;;;;5114920;28;20623;-72
2022/09/27 11:03:37;;;;;;;0.63;0.10;;;13.40;65.10;;;;;;5128121;27;20083;-73
2022/09/27 11:06:22;;;;;;;0.43;0.17;;;13.40;65.60;;;;;;5115410;28;20244;-73
2022/09/27 11:08:50;;;;;;;1.17;0.47;;;13.40;65.60;;;;;;5115203;28;20399;-72
2022/09/27 11:11:27;;;;;;;4.25;0.45;;;13.30;65.60;;;;;;5115258;28;20054;-72
2022/09/27 11:14:06;;;;;;;1.00;0.17;;;13.30;65.60;;;;;;5114397;28;20038;-73
2022/09/27 11:16:45;;;;;;;0.63;0.10;;;13.30;65.60;;;;;;5115118;28;20482;-76
2022/09/27 11:19:26;;;;;;;0.70;0.20;;;13.30;65.50;;;;;;5098312;28;20383;-73
2022/09/27 11:22:08;;;;;;;0.85;0.28;;;13.40;65.30;;;;;;5114738;28;20113;-72
2022/09/27 11:25:07;;;;;;;0.20;0.10;;;13.30;65.20;;;;;;5115133;28;20127;-72
2022/09/27 11:27:55;;;;;;;1.95;0.20;;;13.40;64.90;;;;;;5079921;28;20101;-72
2022/09/27 11:30:22;;;;;;;0.60;0.20;;;13.40;64.50;;;;;;5095518;28;20047;-72
2022/09/27 11:32:59;;;;;;;0.20;0.10;;;13.40;64.90;;;;;;5100336;27;20052;-72
2022/09/27 11:35:54;;;;;;;1.27;0.20;;;13.40;65.00;;;;;;5097583;28;20042;-72
2022/09/27 11:38:57;;;;;;;0.93;0.10;;;13.40;64.10;;;;;;5114378;28;20526;-72
2022/09/27 11:41:54;;;;;;;3.53;0.30;;;13.40;64.90;;;;;;5120822;27;20095;-73
2022/09/27 11:44:24;;;;;;;1.15;0.32;;;13.40;64.90;;;;;;5122845;27;20043;-72
2022/09/27 11:46:59;;;;;;;1.90;0.20;;;13.50;65.10;;;;;;5107566;27;20505;-73
2022/09/27 11:49:33;;;;;;;2.58;0.30;;;13.50;65.20;;;;;;5111796;27;20125;-72
2022/09/27 11:52:29;;;;;;;1.48;0.32;;;13.50;65.50;;;;;;5126132;27;20046;-72
2022/09/27 11:55:14;;;;;;;2.30;0.30;;;13.60;65.10;;;;;;5123811;27;20122;-72
2022/09/27 11:57:50;;;;;;;1.15;0.32;;;13.60;65.50;;;;;;5104342;27;20035;-73
2022/09/27 12:00:20;;;;;;;2.20;0.77;;;13.60;65.90;;;;;;5125190;27;20031;-72
2022/09/27 12:03:03;;;;;;;2.63;0.52;;;13.60;66.00;;;;;;5106067;27;20054;-67
2022/09/27 12:05:41;;;;;;;2.63;0.60;;;13.70;65.80;;;;;;5126227;27;20047;-71
2022/09/27 12:08:27;;;;;;;4.00;0.68;;;13.70;66.20;;;;;;5124819;27;20292;-72
2022/09/27 12:11:01;;;;;;;2.55;0.65;;;13.70;66.10;;;;;;5127528;27;21427;-72
2022/09/27 12:13:44;;;;;;;2.85;0.60;;;13.70;66.50;;;;;;5122134;27;20039;-72
2022/09/27 12:16:11;;;;;;;4.30;0.80;;;13.70;66.50;;;;;;5123567;27;20027;-66
2022/09/27 12:18:39;;;;;;;4.05;0.52;;;13.70;66.40;;;;;;5107168;27;20493;-72
2022/09/27 12:21:08;;;;;;;1.83;0.40;;;13.70;66.10;;;;;;5107184;28;20140;-72
2022/09/27 12:23:38;;;;;;;4.75;0.82;;;13.80;66.00;;;;;;5125808;27;20062;-73
2022/09/27 12:26:10;;;;;;;3.00;0.68;;;13.80;65.90;;;;;;5125589;27;20063;-72
2022/09/27 12:28:44;;;;;;;1.40;0.40;;;13.80;66.10;;;;;;5123603;27;20508;-73
2022/09/27 12:31:39;;;;;;;4.53;0.50;;;13.80;65.90;;;;;;5127477;27;20394;-72
2022/09/27 12:34:23;;;;;;;;;;;13.90;65.50;;;;;;5125720;27;20099;-72
2022/09/27 12:37:07;;;;;;;4.68;0.80;;;13.90;65.80;;;;;;5123158;27;19922;-72
2022/09/27 12:39:53;;;;;;;4.18;0.75;;;13.90;65.90;;;;;;5121584;27;20035;-72
2022/09/27 12:42:40;;;;;;;3.55;0.80;;;14.00;65.80;;;;;;5125731;27;20122;-72
2022/09/27 12:45:15;;;;;;;3.17;0.73;;;14.00;65.40;;;;;;5125413;27;20035;-72
2022/09/27 12:48:00;;;;;;;4.43;0.55;;;14.00;65.30;;;;;;5123537;27;20104;-73
2022/09/27 12:50:38;;;;;;;1.70;0.40;;;14.10;65.10;;;;;;5124170;27;20118;-72
2022/09/27 12:53:22;;;;;;;1.52;0.60;;;14.10;64.70;;;;;;5126312;27;20055;-73
2022/09/27 12:56:12;;;;;;;1.83;0.30;;;14.10;65.10;;;;;;5123254;27;20058;-73
2022/09/27 12:59:02;;;;;;;1.88;0.40;;;14.10;64.40;;;;;;5121706;27;20103;-72
2022/09/27 13:01:31;;;;;;;2.22;0.38;;;14.10;64.80;;;;;;5121771;27;20367;-73
2022/09/27 13:04:24;;;;;;;4.30;0.88;;;14.10;64.80;;;;;;5123787;27;20383;-73
2022/09/27 13:07:03;;;;;;;1.52;0.43;;;14.10;64.40;;;;;;5119662;27;20097;-73
2022/09/27 13:09:58;;;;;;;1.35;0.40;;;14.10;63.90;;;;;;5121319;27;20463;-72
2022/09/27 13:12:26;;;;;;;1.20;0.20;;;14.10;63.90;;;;;;5118679;27;20043;-72
2022/09/27 13:15:17;;;;;;;1.17;0.25;;;14.10;64.20;;;;;;5124113;27;20074;-72
2022/09/27 13:17:43;;;;;;;2.03;0.50;;;14.10;64.00;;;;;;5115452;27;20402;-68
2022/09/27 13:20:48;;;;;;;1.42;0.35;;;14.10;64.10;;;;;;5127618;27;20043;-67
2022/09/27 13:23:19;;;;;;;2.35;0.40;;;14.10;63.20;;;;;;5128656;27;20103;-67